Time;durP1;ratioP1;P1;durP2;ratioP2;P2;SDS_P1;SDS_P2;PMS_P1;PMS_P2;Temp;Humidity;BMP_temperature;BMP_pressure;BME280_temperature;BME280_humidity;BME280_pressure;Samples;Min_cycle;Max_cycle;Signal;HPM_P1;HPM_P2
2022/11/06 00:00:16;;;;;;;5.80;4.10;;;;;;;8.17;87.26;101617.47;4985914;28;20215;-75
2022/11/06 00:02:42;;;;;;;7.97;4.10;;;;;;;8.15;87.53;101611.41;4985170;28;20234;-75
2022/11/06 00:07:52;;;;;;;13.43;8.77;;;;;;;8.17;87.27;101607.28;4987950;28;20187;-75
2022/11/06 00:10:18;;;;;;;12.50;6.37;;;;;;;8.20;86.66;101604.84;4986883;28;20180;-76
2022/11/06 00:12:44;;;;;;;7.90;5.37;;;;;;;8.21;87.50;101603.19;4992186;28;20207;-75
2022/11/06 00:15:09;;;;;;;7.40;6.50;;;;;;;8.20;87.18;101603.97;4991656;28;20254;-76
2022/11/06 00:17:35;;;;;;;9.63;7.10;;;;;;;8.19;87.56;101597.09;4990063;28;20199;-75
2022/11/06 00:20:01;;;;;;;8.40;6.23;;;;;;;8.21;87.41;101591.28;4993070;28;20192;-75
2022/11/06 00:22:27;;;;;;;11.13;6.60;;;;;;;8.23;87.24;101588.81;4971097;28;20227;-76
2022/11/06 00:24:52;;;;;;;11.13;7.63;;;;;;;8.26;87.05;101591.50;4987277;28;20195;-75
2022/11/06 00:27:18;;;;;;;21.00;13.23;;;;;;;8.24;87.01;101590.56;4987967;28;20201;-76
2022/11/06 00:29:43;;;;;;;8.40;7.10;;;;;;;8.29;87.24;101591.63;4981926;28;20196;-76
2022/11/06 00:32:09;;;;;;;14.10;9.03;;;;;;;8.31;86.75;101592.53;4984924;28;20733;-75
2022/11/06 00:34:34;;;;;;;10.13;7.33;;;;;;;8.30;87.00;101588.25;4989172;28;20779;-75
2022/11/06 00:37:00;;;;;;;7.00;4.33;;;;;;;8.34;86.90;101590.13;4987645;28;20188;-76
2022/11/06 00:39:25;;;;;;;9.17;4.90;;;;;;;8.33;86.17;101596.91;4989136;28;20234;-75
2022/11/06 00:41:51;;;;;;;9.37;4.53;;;;;;;8.32;85.90;101590.06;4985647;28;20211;-76
2022/11/06 00:44:16;;;;;;;6.70;4.37;;;;;;;8.33;86.06;101589.25;4984813;28;20212;-75
2022/11/06 00:46:42;;;;;;;5.63;3.73;;;;;;;8.34;85.99;101580.78;4985510;28;20819;-75
2022/11/06 00:49:07;;;;;;;7.20;4.33;;;;;;;8.33;86.84;101586.69;4987281;28;20196;-76
2022/11/06 00:51:35;;;;;;;5.60;3.87;;;;;;;8.34;86.19;101582.47;4989433;28;20202;-76
2022/11/06 00:54:04;;;;;;;7.60;4.43;;;;;;;8.33;86.37;101586.69;4987415;28;20349;-76
2022/11/06 00:56:31;;;;;;;6.70;3.93;;;;;;;8.35;86.94;101584.19;4984741;28;20188;-76
2022/11/06 00:59:02;;;;;;;9.40;3.93;;;;;;;8.39;85.71;101574.16;4991907;28;20595;-75
2022/11/06 01:01:30;;;;;;;8.37;3.93;;;;;;;8.41;85.39;101580.22;4985858;28;20323;-76
2022/11/06 01:04:01;;;;;;;6.67;3.90;;;;;;;8.41;85.11;101571.69;4992166;28;20219;-76
2022/11/06 01:06:30;;;;;;;7.47;4.23;;;;;;;8.42;85.84;101568.31;4984808;28;20196;-74
2022/11/06 01:08:56;;;;;;;5.77;4.17;;;;;;;8.42;86.15;101568.31;4987550;28;20187;-76
2022/11/06 01:11:30;;;;;;;7.70;4.60;;;;;;;8.43;85.88;101576.03;4991458;28;20188;-75
2022/11/06 01:13:59;;;;;;;9.00;5.07;;;;;;;8.45;86.45;101574.44;4989479;28;20278;-76
2022/11/06 01:16:25;;;;;;;6.63;4.20;;;;;;;8.45;86.50;101573.53;4988971;28;20196;-76
2022/11/06 01:18:52;;;;;;;8.20;3.93;;;;;;;8.48;86.52;101573.69;4967630;28;20196;-76
2022/11/06 01:21:24;;;;;;;8.10;4.00;;;;;;;8.48;86.77;101571.13;4997336;28;20572;-75
2022/11/06 01:23:55;;;;;;;7.20;3.90;;;;;;;8.51;86.82;101564.44;4996684;28;20208;-75
2022/11/06 01:26:22;;;;;;;7.73;4.20;;;;;;;8.49;86.20;101553.31;5000210;28;20215;-76
2022/11/06 01:28:48;;;;;;;8.33;4.07;;;;;;;8.49;86.43;101560.97;5004140;28;20183;-76
2022/11/06 01:31:17;;;;;;;7.60;4.17;;;;;;;8.49;86.57;101558.44;4997114;28;20696;-76
2022/11/06 01:33:42;;;;;;;5.73;3.97;;;;;;;8.49;86.51;101560.97;5000924;28;20244;-76
2022/11/06 01:36:10;;;;;;;6.30;3.60;;;;;;;8.50;86.36;101560.16;4976931;28;20715;-76
2022/11/06 01:38:38;;;;;;;5.87;3.57;;;;;;;8.51;86.73;101553.34;5000693;28;20191;-76
2022/11/06 01:41:04;;;;;;;5.87;3.60;;;;;;;8.50;86.78;101556.72;4995999;28;20708;-75
2022/11/06 01:43:47;;;;;;;7.57;3.77;;;;;;;8.52;86.01;101548.31;4986115;28;20212;-75
2022/11/06 01:46:14;;;;;;;5.90;3.77;;;;;;;8.52;86.92;101543.22;5002889;28;20527;-75
2022/11/06 01:48:43;;;;;;;4.63;3.50;;;;;;;8.52;86.96;101540.66;4997004;28;20183;-76
2022/11/06 01:51:09;;;;;;;10.63;4.03;;;;;;;8.52;86.70;101537.25;5001403;28;20214;-75
2022/11/06 01:53:36;;;;;;;7.67;4.27;;;;;;;8.56;86.84;101534.88;4993235;28;20621;-76
2022/11/06 01:56:04;;;;;;;3.60;3.17;;;;;;;8.60;86.65;101539.28;4991350;28;20183;-75
2022/11/06 01:58:33;;;;;;;8.27;3.93;;;;;;;8.62;86.78;101532.53;5002901;28;20274;-75
2022/11/06 02:00:59;;;;;;;6.17;3.30;;;;;;;8.64;86.66;101535.16;4995260;28;20203;-76
2022/11/06 02:03:25;;;;;;;8.07;3.50;;;;;;;8.67;86.70;101537.84;4994868;28;20203;-75
2022/11/06 02:05:52;;;;;;;4.43;3.37;;;;;;;8.70;86.54;101525.19;5004928;28;20184;-75
2022/11/06 02:08:20;;;;;;;5.03;3.87;;;;;;;8.71;86.90;101521.81;4996026;28;20208;-75
2022/11/06 02:10:46;;;;;;;5.97;3.20;;;;;;;8.72;86.29;101518.44;4997603;28;20184;-76
2022/11/06 02:13:21;;;;;;;6.83;3.87;;;;;;;8.73;86.58;101508.31;4991361;28;20203;-76
2022/11/06 02:15:46;;;;;;;7.17;4.03;;;;;;;8.74;86.24;101510.03;4998755;28;20182;-76
2022/11/06 02:18:27;;;;;;;6.87;3.97;;;;;;;8.79;86.28;101502.53;5005660;28;20607;-76
2022/11/06 02:21:30;;;;;;;5.63;3.73;;;;;;;8.80;86.77;101500.03;5000795;28;20216;-75
2022/11/06 02:24:24;;;;;;;5.60;3.43;;;;;;;8.82;86.72;101502.66;4999787;28;20233;-75
2022/11/06 02:26:56;;;;;;;8.60;3.53;;;;;;;8.84;86.95;101499.34;4991553;28;20241;-75
2022/11/06 02:29:30;;;;;;;5.57;3.63;;;;;;;8.88;86.30;101492.66;4993471;28;20196;-76
2022/11/06 02:32:02;;;;;;;5.43;3.53;;;;;;;8.92;86.38;101494.50;5000758;28;20235;-75
2022/11/06 02:34:29;;;;;;;4.43;3.53;;;;;;;8.94;85.63;101501.41;4999857;28;20573;-76
2022/11/06 02:37:00;;;;;;;6.63;3.60;;;;;;;8.99;85.35;101492.22;5000901;28;20202;-76
2022/11/06 02:39:28;;;;;;;4.87;3.43;;;;;;;9.02;85.37;101488.91;5007498;28;20318;-76
2022/11/06 02:41:58;;;;;;;6.70;3.60;;;;;;;9.03;85.63;101477.91;5001718;28;20199;-76
2022/11/06 02:44:27;;;;;;;6.33;3.93;;;;;;;9.06;85.26;101480.56;5007763;28;20748;-75
2022/11/06 02:46:59;;;;;;;6.27;3.40;;;;;;;9.07;85.25;101478.06;5010928;28;20217;-77
2022/11/06 02:49:36;;;;;;;8.43;3.63;;;;;;;9.10;84.86;101483.28;4994230;28;20202;-75
2022/11/06 02:52:09;;;;;;;5.90;3.67;;;;;;;9.13;84.81;101483.38;5003297;28;20239;-76
2022/11/06 02:54:38;;;;;;;5.43;3.97;;;;;;;9.17;83.93;101469.88;5004888;28;20191;-75
2022/11/06 02:57:09;;;;;;;6.87;3.47;;;;;;;9.17;84.23;101474.16;5001772;28;20198;-76
2022/11/06 02:59:56;;;;;;;4.57;3.27;;;;;;;9.17;84.96;101469.03;4995658;28;20191;-76
2022/11/06 03:02:29;;;;;;;5.67;3.20;;;;;;;9.17;84.65;101462.22;4991035;28;20188;-76
2022/11/06 03:05:04;;;;;;;6.23;3.73;;;;;;;9.18;84.13;101469.09;4998136;28;20272;-76
2022/11/06 03:07:32;;;;;;;6.83;3.20;;;;;;;9.18;84.56;101458.00;5001731;28;20547;-76
2022/11/06 03:09:58;;;;;;;6.77;3.70;;;;;;;9.22;84.38;101452.19;4976467;28;20202;-76
2022/11/06 03:12:39;;;;;;;6.40;3.30;;;;;;;9.21;84.04;101453.84;5000858;28;20611;-76
2022/11/06 03:15:32;;;;;;;5.63;3.20;;;;;;;9.24;83.60;101438.66;4975730;28;20192;-76
2022/11/06 03:18:13;;;;;;;7.43;3.30;;;;;;;9.21;84.21;101443.63;4993003;28;20183;-75
2022/11/06 03:21:01;;;;;;;6.67;3.03;;;;;;;9.24;83.98;101438.66;5003953;28;20274;-76
2022/11/06 03:23:47;;;;;;;9.97;3.50;;;;;;;9.24;83.96;101445.44;4999385;28;20235;-75
2022/11/06 03:26:22;;;;;;;4.33;3.27;;;;;;;9.25;83.58;101437.81;4990688;28;20804;-76
2022/11/06 03:28:59;;;;;;;8.43;3.30;;;;;;;9.25;84.03;101445.47;4989339;28;20184;-76
2022/11/06 03:31:35;;;;;;;6.63;3.40;;;;;;;9.25;84.10;101436.94;5000816;28;20205;-76
2022/11/06 03:34:06;;;;;;;6.63;2.93;;;;;;;9.24;83.94;101427.53;4993250;28;20238;-76
2022/11/06 03:36:36;;;;;;;5.90;3.30;;;;;;;9.23;84.21;101433.47;4993199;28;20274;-76
2022/11/06 03:39:06;;;;;;;9.30;3.50;;;;;;;9.22;83.91;101437.69;4994047;28;20185;-76
2022/11/06 03:41:41;;;;;;;6.53;3.10;;;;;;;9.24;83.96;101436.09;4985476;28;20203;-75
2022/11/06 03:44:10;;;;;;;6.60;3.17;;;;;;;9.24;83.53;101427.53;5001532;28;20215;-75
2022/11/06 03:46:41;;;;;;;5.50;3.30;;;;;;;9.22;84.63;101442.81;4991227;28;20191;-76
2022/11/06 03:49:12;;;;;;;5.03;3.07;;;;;;;9.22;84.41;101437.69;5003798;28;20183;-76
2022/11/06 03:52:14;;;;;;;4.77;3.13;;;;;;;9.22;84.69;101440.25;5007523;28;20191;-77
2022/11/06 03:54:49;;;;;;;4.57;2.80;;;;;;;9.21;83.90;101440.22;4994286;28;20300;-76
2022/11/06 03:57:20;;;;;;;3.60;2.70;;;;;;;9.22;84.11;101440.25;5010460;28;20289;-76
2022/11/06 03:59:50;;;;;;;5.93;3.30;;;;;;;9.21;84.53;101437.69;5001785;28;20717;-75
2022/11/06 04:02:18;;;;;;;5.77;2.80;;;;;;;9.20;84.01;101429.13;4988254;28;20708;-76
2022/11/06 04:04:52;;;;;;;6.73;3.30;;;;;;;9.19;84.24;101424.84;4998937;28;20218;-75
2022/11/06 04:07:25;;;;;;;5.07;3.20;;;;;;;9.20;84.60;101416.34;4992511;28;20183;-75
2022/11/06 04:15:30;;;;;;;5.03;3.17;;;;;;;9.22;84.50;101424.94;5005144;28;20187;-78
2022/11/06 04:17:55;;;;;;;6.30;3.23;;;;;;;9.21;84.12;101428.31;5008875;28;20249;-78
2022/11/06 04:23:23;;;;;;;5.67;2.80;;;;;;;9.23;84.01;101424.13;5007361;28;20219;-78
2022/11/06 04:26:34;;;;;;;7.03;3.00;;;;;;;9.25;83.85;101425.03;4991263;28;20564;-77
2022/11/06 04:29:32;;;;;;;6.47;2.63;;;;;;;9.28;83.96;101422.59;5006058;28;20196;-77
2022/11/06 04:32:31;;;;;;;8.90;2.80;;;;;;;9.30;83.07;101431.16;5007591;28;20235;-76
2022/11/06 04:35:29;;;;;;;4.80;3.10;;;;;;;9.28;83.43;101440.50;5000293;28;20195;-75
2022/11/06 04:38:07;;;;;;;5.87;3.07;;;;;;;9.29;83.69;101436.22;4974161;28;20246;-76
2022/11/06 04:40:52;;;;;;;8.87;3.27;;;;;;;9.30;84.32;101438.84;4995681;28;20213;-76
2022/11/06 04:43:38;;;;;;;6.00;2.77;;;;;;;9.29;84.42;101429.44;4995188;28;20256;-76
2022/11/06 04:46:08;;;;;;;4.27;2.90;;;;;;;9.27;85.03;101435.31;4998777;28;20186;-76
2022/11/06 04:48:34;;;;;;;6.83;3.13;;;;;;;9.25;85.45;101429.28;4995986;28;20184;-76
2022/11/06 04:51:04;;;;;;;6.03;2.83;;;;;;;9.24;85.26;101425.88;4998441;28;20246;-76
2022/11/06 04:53:32;;;;;;;5.67;3.03;;;;;;;9.22;86.13;101430.03;4992680;28;20203;-76
2022/11/06 04:56:08;;;;;;;6.40;3.00;;;;;;;9.21;86.29;101430.00;4999394;28;20286;-76
2022/11/06 04:58:34;;;;;;;4.63;3.30;;;;;;;9.21;86.44;101433.41;4999439;28;20667;-76
2022/11/06 05:00:59;;;;;;;6.00;3.30;;;;;;;9.21;86.55;101427.47;5006573;28;20214;-76
2022/11/06 05:03:24;;;;;;;5.87;3.07;;;;;;;9.20;85.86;101425.69;5005276;28;20207;-76
2022/11/06 05:05:50;;;;;;;5.43;2.90;;;;;;;9.19;85.74;101424.84;4999248;28;20187;-76
2022/11/06 05:08:18;;;;;;;7.37;2.83;;;;;;;9.20;86.05;101424.03;5000675;28;20207;-75
2022/11/06 05:10:44;;;;;;;6.83;3.17;;;;;;;9.19;86.27;101421.41;5001445;28;20604;-76
2022/11/06 05:13:10;;;;;;;5.10;3.00;;;;;;;9.18;86.18;101418.00;4995067;28;20217;-77
2022/11/06 05:15:37;;;;;;;6.73;3.50;;;;;;;9.19;85.18;101419.72;4992781;28;20192;-75
2022/11/06 05:18:03;;;;;;;4.67;2.87;;;;;;;9.18;85.47;101412.91;4996998;28;20191;-76
2022/11/06 05:20:28;;;;;;;5.90;2.90;;;;;;;9.17;86.11;101407.72;5001807;28;20206;-76
2022/11/06 05:22:56;;;;;;;4.40;3.03;;;;;;;9.20;85.02;101420.59;4998990;28;20273;-77
2022/11/06 05:25:23;;;;;;;6.10;3.10;;;;;;;9.23;84.53;101406.25;5004191;28;20739;-74
2022/11/06 05:27:48;;;;;;;5.37;2.90;;;;;;;9.22;85.14;101417.25;4997229;28;20315;-76
2022/11/06 05:30:14;;;;;;;6.00;2.90;;;;;;;9.21;85.56;101407.88;5004908;28;20705;-76
2022/11/06 05:32:39;;;;;;;7.17;3.00;;;;;;;9.20;84.96;101421.47;5004981;28;20230;-76
2022/11/06 05:35:05;;;;;;;7.50;3.17;;;;;;;9.19;85.26;101411.19;5004808;28;20182;-76
2022/11/06 05:37:31;;;;;;;5.53;3.07;;;;;;;9.21;84.74;101419.78;4997973;28;20622;-77
2022/11/06 05:39:56;;;;;;;4.07;2.93;;;;;;;9.22;85.24;101421.53;5001920;28;20275;-74
2022/11/06 05:42:22;;;;;;;5.37;2.80;;;;;;;9.19;84.54;101413.75;5000362;28;20698;-76
2022/11/06 05:44:47;;;;;;;5.07;2.80;;;;;;;9.20;84.64;101412.91;4998750;28;20175;-76
2022/11/06 05:47:12;;;;;;;7.43;2.90;;;;;;;9.19;84.17;101406.97;4999407;28;20274;-75
2022/11/06 05:49:38;;;;;;;5.90;3.00;;;;;;;9.19;84.01;101406.09;4988253;28;20200;-76
2022/11/06 05:52:04;;;;;;;6.73;2.87;;;;;;;9.20;84.74;101412.91;4994313;28;20215;-76
2022/11/06 05:54:29;;;;;;;4.83;2.80;;;;;;;9.22;84.63;101403.63;5000623;28;20561;-75
2022/11/06 05:56:54;;;;;;;6.50;3.20;;;;;;;9.20;84.34;101407.81;5001012;28;20188;-75
2022/11/06 05:59:20;;;;;;;5.57;2.90;;;;;;;9.18;85.04;101401.78;4990103;28;20991;-75
2022/11/06 06:01:45;;;;;;;6.20;3.40;;;;;;;9.18;85.19;101402.69;4996724;28;20540;-75
2022/11/06 06:04:11;;;;;;;5.20;3.13;;;;;;;9.19;84.23;101409.50;5007235;28;20215;-75
2022/11/06 06:06:37;;;;;;;5.63;3.47;;;;;;;9.20;84.28;101413.81;5003445;28;20233;-76
2022/11/06 06:09:02;;;;;;;5.27;2.93;;;;;;;9.22;84.22;101422.38;5003366;28;20187;-76
2022/11/06 06:11:28;;;;;;;4.43;2.90;;;;;;;9.22;84.56;101417.25;5003875;28;20558;-76
2022/11/06 06:13:53;;;;;;;7.70;3.33;;;;;;;9.23;84.20;101420.69;5008902;28;20214;-75
2022/11/06 06:16:18;;;;;;;10.07;3.20;;;;;;;9.21;84.55;101415.53;4998724;28;20179;-76
2022/11/06 06:18:44;;;;;;;5.87;3.00;;;;;;;9.24;84.26;101418.19;5000410;28;20195;-75
2022/11/06 06:21:09;;;;;;;5.67;2.93;;;;;;;9.21;84.58;101412.97;5003735;28;20681;-75
2022/11/06 06:23:35;;;;;;;5.73;3.03;;;;;;;9.23;83.93;101421.59;5001443;28;20215;-76
2022/11/06 06:26:00;;;;;;;3.87;3.10;;;;;;;9.23;84.35;101420.69;4990825;28;20194;-76
2022/11/06 06:28:26;;;;;;;5.30;2.83;;;;;;;9.21;84.27;101418.09;5002493;28;20327;-76
2022/11/06 06:30:51;;;;;;;5.80;2.93;;;;;;;9.23;84.59;101419.03;4995331;28;20192;-75
2022/11/06 06:33:17;;;;;;;5.50;2.80;;;;;;;9.24;84.63;101420.75;4990476;28;20218;-75
2022/11/06 06:35:42;;;;;;;7.07;2.90;;;;;;;9.22;83.95;101416.41;5006375;28;20195;-75
2022/11/06 06:38:07;;;;;;;6.27;3.10;;;;;;;9.22;84.29;101408.75;4997416;28;20194;-75
2022/11/06 06:40:33;;;;;;;4.23;2.73;;;;;;;9.21;84.52;101412.97;4999290;28;20302;-76
2022/11/06 06:42:59;;;;;;;4.27;2.90;;;;;;;9.19;83.92;101417.19;5000198;28;20215;-75
2022/11/06 06:45:25;;;;;;;4.03;2.77;;;;;;;9.21;83.90;101409.56;4995433;28;20203;-76
2022/11/06 06:47:50;;;;;;;6.33;3.13;;;;;;;9.21;84.16;101418.09;4990503;28;20225;-76
2022/11/06 06:50:15;;;;;;;5.50;3.13;;;;;;;9.21;84.29;101412.97;5005555;28;20219;-75
2022/11/06 06:52:41;;;;;;;5.77;3.07;;;;;;;9.22;84.70;101419.81;4993232;28;20234;-75
2022/11/06 06:55:07;;;;;;;5.53;2.90;;;;;;;9.24;84.05;101414.75;4996089;28;20276;-75
2022/11/06 06:57:32;;;;;;;4.37;2.80;;;;;;;9.22;84.62;101419.81;4992311;28;20611;-76
2022/11/06 06:59:57;;;;;;;5.00;3.17;;;;;;;9.24;84.65;101424.97;4991328;28;20287;-75
2022/11/06 07:02:23;;;;;;;5.73;2.93;;;;;;;9.27;84.88;101427.66;4994895;28;20267;-75
2022/11/06 07:04:48;;;;;;;3.17;2.67;;;;;;;9.31;84.60;101415.03;4995057;28;20196;-76
2022/11/06 07:07:14;;;;;;;4.80;2.57;;;;;;;9.34;84.44;101422.78;4984010;28;20711;-75
2022/11/06 07:09:39;;;;;;;4.53;2.93;;;;;;;9.38;84.04;101411.88;5010563;28;20193;-74
2022/11/06 07:12:05;;;;;;;4.80;3.30;;;;;;;9.40;83.85;101405.09;5014342;28;20281;-75
2022/11/06 07:14:30;;;;;;;8.43;3.47;;;;;;;9.43;84.13;101412.00;5014209;28;20230;-75
2022/11/06 07:16:56;;;;;;;4.50;2.70;;;;;;;9.43;84.35;101405.22;5012771;28;20191;-74
2022/11/06 07:19:21;;;;;;;5.93;2.77;;;;;;;9.43;84.17;101402.66;5019600;28;20198;-75
2022/11/06 07:21:50;;;;;;;6.00;3.03;;;;;;;9.49;83.98;101410.50;5016987;28;20642;-75
2022/11/06 07:24:16;;;;;;;4.63;2.70;;;;;;;9.49;83.91;101412.22;5012738;28;20218;-76
2022/11/06 07:26:42;;;;;;;4.97;3.00;;;;;;;9.50;83.57;101407.13;5016066;28;20627;-75
2022/11/06 07:29:07;;;;;;;5.60;2.83;;;;;;;9.52;83.42;101402.97;5015838;28;20186;-76
2022/11/06 07:31:33;;;;;;;5.10;2.67;;;;;;;9.54;83.68;101408.97;5014636;28;20195;-75
2022/11/06 07:33:58;;;;;;;5.37;2.83;;;;;;;9.57;83.97;101413.31;5021337;28;20214;-76
2022/11/06 07:36:24;;;;;;;6.90;3.00;;;;;;;9.58;83.88;101422.75;5018450;28;20207;-76
2022/11/06 07:38:49;;;;;;;4.77;2.87;;;;;;;9.61;84.11;101418.59;5019994;28;20626;-75
2022/11/06 07:41:14;;;;;;;3.47;2.77;;;;;;;9.68;83.46;101414.53;5011920;28;20212;-75
2022/11/06 07:43:40;;;;;;;4.70;2.60;;;;;;;9.71;83.69;101414.63;5015780;28;20229;-76
2022/11/06 07:46:08;;;;;;;5.60;2.70;;;;;;;9.81;82.53;101414.97;5019501;28;20539;-76
2022/11/06 07:48:33;;;;;;;5.83;2.73;;;;;;;9.76;83.11;101413.97;5014785;28;20199;-75
2022/11/06 07:51:04;;;;;;;6.03;2.37;;;;;;;9.83;83.23;101413.34;5021894;28;20242;-75
2022/11/06 07:53:30;;;;;;;9.30;2.80;;;;;;;9.87;82.34;101412.59;5015662;28;20211;-76
2022/11/06 07:55:56;;;;;;;5.97;2.83;;;;;;;9.99;81.96;101402.75;5018196;28;20202;-75
2022/11/06 07:58:23;;;;;;;5.10;2.73;;;;;;;10.04;82.35;101405.47;5016540;28;20261;-75
2022/11/06 08:00:50;;;;;;;5.00;2.53;;;;;;;9.99;82.40;101413.00;5000744;28;20294;-75
2022/11/06 08:03:17;;;;;;;8.17;2.60;;;;;;;9.99;82.43;101418.09;4996352;28;20697;-75
2022/11/06 08:05:43;;;;;;;4.43;2.40;;;;;;;9.97;82.59;101408.66;4993167;28;20206;-76
2022/11/06 08:08:08;;;;;;;8.80;2.80;;;;;;;10.01;82.15;101406.25;4993114;28;20192;-75
2022/11/06 08:10:39;;;;;;;2.77;2.30;;;;;;;10.00;82.34;101413.88;4995990;28;20191;-75
2022/11/06 08:13:08;;;;;;;5.97;2.40;;;;;;;10.01;82.85;101415.59;4997240;28;20296;-76
2022/11/06 08:15:33;;;;;;;4.57;2.47;;;;;;;10.03;82.25;101402.03;4998046;28;20289;-76
2022/11/06 08:17:59;;;;;;;5.27;2.37;;;;;;;10.08;82.50;101409.88;4996061;28;21465;-74
2022/11/06 08:20:25;;;;;;;7.70;2.63;;;;;;;10.13;82.07;101406.63;4995487;28;20222;-76
2022/11/06 08:22:50;;;;;;;3.73;2.20;;;;;;;10.13;82.20;101395.53;4996740;28;20212;-76
2022/11/06 08:25:16;;;;;;;4.83;2.23;;;;;;;10.26;82.32;101397.63;4997551;28;20280;-74
2022/11/06 08:27:41;;;;;;;3.73;2.30;;;;;;;10.25;81.05;101394.22;4997481;28;20194;-75
2022/11/06 08:30:08;;;;;;;6.30;2.60;;;;;;;10.27;81.66;101394.25;4999694;28;20222;-74
2022/11/06 08:32:33;;;;;;;3.93;2.50;;;;;;;10.23;81.36;101387.31;4995413;28;20369;-77
2022/11/06 08:34:59;;;;;;;4.93;2.63;;;;;;;10.29;81.19;101393.47;4999660;28;20194;-74
2022/11/06 08:37:24;;;;;;;3.13;2.37;;;;;;;10.37;80.72;101391.97;4997680;28;20271;-76
2022/11/06 08:39:49;;;;;;;7.57;2.13;;;;;;;10.37;80.96;101386.03;4989525;28;20192;-76
2022/11/06 08:42:15;;;;;;;6.80;2.37;;;;;;;10.37;80.86;101381.75;4992660;28;20290;-75
2022/11/06 08:44:41;;;;;;;7.53;2.63;;;;;;;10.42;80.62;101375.06;4994712;28;20192;-75
2022/11/06 08:47:07;;;;;;;5.37;2.57;;;;;;;10.49;80.43;101365.88;4995395;28;20690;-74
2022/11/06 08:49:33;;;;;;;7.63;2.53;;;;;;;10.57;80.76;101359.28;4997573;28;20988;-75
2022/11/06 08:51:58;;;;;;;6.50;2.83;;;;;;;10.59;79.69;101360.16;4992789;28;20259;-75
2022/11/06 08:54:24;;;;;;;5.93;2.40;;;;;;;10.78;80.16;101365.84;4982053;28;20215;-73
2022/11/06 08:56:49;;;;;;;3.40;2.00;;;;;;;10.89;78.76;101361.00;4992132;28;20274;-75
2022/11/06 08:59:15;;;;;;;5.27;2.50;;;;;;;10.64;79.46;101362.03;4993485;28;20218;-75
2022/11/06 09:01:40;;;;;;;3.97;2.60;;;;;;;10.68;79.12;101366.41;5000115;28;20214;-75
2022/11/06 09:04:06;;;;;;;3.97;2.17;;;;;;;10.76;79.30;101364.06;4992870;28;20310;-74
2022/11/06 09:06:32;;;;;;;6.23;2.23;;;;;;;10.82;79.37;101359.09;4996238;28;20187;-73
2022/11/06 09:08:58;;;;;;;5.37;2.57;;;;;;;10.86;78.78;101361.78;4993369;28;20187;-75
2022/11/06 09:11:23;;;;;;;5.03;2.30;;;;;;;10.95;78.47;101358.59;4990791;28;20562;-74
2022/11/06 09:13:49;;;;;;;3.10;2.23;;;;;;;10.90;78.82;101349.91;4998835;28;20218;-75
2022/11/06 09:16:14;;;;;;;6.43;2.30;;;;;;;10.89;78.75;101341.38;4996655;28;20183;-74
2022/11/06 09:18:40;;;;;;;6.53;2.37;;;;;;;10.99;78.75;101343.34;4992071;28;20218;-76
2022/11/06 09:21:05;;;;;;;4.77;2.00;;;;;;;11.05;78.57;101343.50;4995734;28;20210;-77
2022/11/06 09:23:30;;;;;;;4.77;2.40;;;;;;;11.16;78.04;101346.34;4993146;28;20219;-75
2022/11/06 09:25:57;;;;;;;5.10;2.30;;;;;;;11.16;77.64;101347.19;4996299;28;20187;-75
2022/11/06 09:28:23;;;;;;;5.03;2.17;;;;;;;11.10;78.08;101344.47;4997720;28;20184;-75
2022/11/06 09:30:48;;;;;;;3.73;1.90;;;;;;;11.18;78.48;101355.81;4980740;28;20277;-73
2022/11/06 09:33:15;;;;;;;3.67;2.03;;;;;;;11.11;78.25;101348.78;4992112;28;20227;-75
2022/11/06 09:35:40;;;;;;;4.00;1.80;;;;;;;11.13;78.47;101356.50;4994942;28;20195;-75
2022/11/06 09:38:10;;;;;;;3.80;1.93;;;;;;;11.12;78.48;101347.97;4992674;28;20191;-75
2022/11/06 09:40:37;;;;;;;4.43;2.17;;;;;;;11.06;78.64;101344.38;4995907;28;20281;-75
2022/11/06 09:43:20;;;;;;;6.83;2.50;;;;;;;11.13;78.05;101342.00;4993442;28;20254;-75
2022/11/06 09:45:50;;;;;;;5.50;2.13;;;;;;;11.17;77.93;101350.63;4999335;28;20214;-73
2022/11/06 09:48:39;;;;;;;4.70;2.20;;;;;;;11.26;78.00;101350.84;5004292;28;20211;-75
2022/11/06 09:51:26;;;;;;;5.77;2.17;;;;;;;11.32;78.28;101349.31;4993293;28;20196;-77
2022/11/06 09:54:08;;;;;;;4.23;1.90;;;;;;;11.49;77.92;101347.16;5004725;28;20300;-75
2022/11/06 09:56:37;;;;;;;5.40;2.10;;;;;;;11.49;77.76;101348.03;4983601;28;20242;-75
2022/11/06 09:59:06;;;;;;;3.63;1.80;;;;;;;11.51;77.97;101343.78;4987159;28;20188;-75
2022/11/06 10:01:54;;;;;;;4.53;2.03;;;;;;;11.53;78.20;101342.13;4994408;28;20272;-74
2022/11/06 10:04:25;;;;;;;4.10;1.90;;;;;;;11.57;77.51;101337.94;4989582;28;20208;-76
2022/11/06 10:06:52;;;;;;;5.07;2.00;;;;;;;11.62;78.23;101339.78;4994907;28;20198;-75
2022/11/06 10:09:17;;;;;;;3.13;1.83;;;;;;;11.69;77.80;101339.13;4989260;28;20377;-76
2022/11/06 10:12:13;;;;;;;4.17;1.83;;;;;;;11.70;77.64;101332.31;4986302;28;20250;-76
2022/11/06 10:14:42;;;;;;;3.80;2.40;;;;;;;11.78;77.36;101318.81;4989809;28;20250;-75
2022/11/06 10:17:25;;;;;;;5.47;2.50;;;;;;;11.91;77.42;101322.50;4989957;28;20210;-76
2022/11/06 10:19:59;;;;;;;4.97;2.10;;;;;;;12.09;76.85;101318.63;4992015;28;20196;-75
2022/11/06 10:22:54;;;;;;;4.50;2.10;;;;;;;12.17;75.73;101314.50;4989669;28;20222;-76
2022/11/06 10:25:23;;;;;;;2.67;1.80;;;;;;;12.43;74.82;101317.59;4980729;28;20208;-76
2022/11/06 10:28:08;;;;;;;3.07;1.80;;;;;;;12.84;74.18;101311.50;4996219;28;20210;-77
2022/11/06 10:31:02;;;;;;;2.90;1.80;;;;;;;13.39;72.22;101310.75;4992767;28;20201;-77
2022/11/06 10:33:27;;;;;;;3.17;1.53;;;;;;;13.69;70.21;101299.22;4992173;28;20246;-76
2022/11/06 10:36:09;;;;;;;5.10;1.80;;;;;;;13.74;69.36;101300.13;4996035;28;20666;-77
2022/11/06 10:38:37;;;;;;;4.90;1.83;;;;;;;13.85;68.85;101298.56;5004624;28;20688;-77
2022/11/06 10:41:04;;;;;;;3.87;1.80;;;;;;;13.53;70.65;101286.94;5001794;28;20223;-78
2022/11/06 10:43:30;;;;;;;6.97;2.10;;;;;;;13.30;72.52;101288.31;4998471;28;20215;-77
2022/11/06 10:46:17;;;;;;;3.43;1.77;;;;;;;13.32;73.38;101285.78;5001810;28;20207;-77
2022/11/06 10:48:48;;;;;;;5.33;1.93;;;;;;;13.98;70.67;101278.97;4997352;28;20196;-77
2022/11/06 10:51:23;;;;;;;3.17;1.53;;;;;;;14.38;69.47;101276.06;4997375;28;20251;-76
2022/11/06 10:54:20;;;;;;;4.77;1.80;;;;;;;15.82;63.37;101266.94;5007569;28;20220;-76
2022/11/06 10:56:55;;;;;;;3.47;1.70;;;;;;;14.21;67.79;101269.84;5003499;28;20196;-78
2022/11/06 10:59:20;;;;;;;3.67;1.80;;;;;;;15.30;64.89;101278.66;5009412;28;20203;-77
2022/11/06 11:01:46;;;;;;;2.97;1.60;;;;;;;13.94;68.85;101280.66;5005329;28;20215;-75
2022/11/06 11:04:11;;;;;;;3.23;1.60;;;;;;;20.67;51.23;101245.56;4997230;28;20235;-77
2022/11/06 11:06:39;;;;;;;2.80;1.87;;;;;;;24.49;40.18;101223.59;4999135;28;20195;-77
2022/11/06 11:09:26;;;;;;;4.07;1.50;;;;;;;23.35;39.95;101219.97;5004454;28;20191;-77
2022/11/06 11:11:51;;;;;;;2.25;1.52;;;;;;;24.61;38.49;101207.50;5000575;28;20203;-78
2022/11/06 11:14:29;;;;;;;4.17;1.80;;;;;;;19.72;47.91;101225.13;4997247;28;20207;-72
2022/11/06 11:16:58;;;;;;;3.23;1.80;;;;;;;23.21;42.45;101209.00;4990326;28;20192;-74
2022/11/06 11:19:43;;;;;;;2.23;1.57;;;;;;;22.83;40.43;101203.03;4991282;28;20188;-74
2022/11/06 11:22:14;;;;;;;2.80;1.58;;;;;;;25.05;36.95;101188.56;4988947;28;20262;-78
2022/11/06 11:24:58;;;;;;;2.50;1.65;;;;;;;25.13;37.49;101173.41;4995136;28;20201;-77
2022/11/06 11:27:24;;;;;;;2.10;1.58;;;;;;;25.99;35.95;101163.25;4996228;28;20194;-80
2022/11/06 11:29:50;;;;;;;3.95;1.88;;;;;;;24.58;38.05;101168.31;5001203;28;20696;-79
2022/11/06 11:32:19;;;;;;;2.50;1.40;;;;;;;26.90;34.42;101169.19;5002622;28;20187;-77
2022/11/06 11:34:52;;;;;;;3.80;1.80;;;;;;;26.03;34.71;101160.47;4991407;28;20219;-75
2022/11/06 11:37:32;;;;;;;2.83;1.77;;;;;;;26.93;34.07;101150.66;4996471;28;20234;-73
2022/11/06 11:40:34;;;;;;;3.10;1.70;;;;;;;26.28;35.28;101165.59;4996192;28;20692;-75
2022/11/06 11:43:18;;;;;;;3.00;1.90;;;;;;;25.52;35.50;101172.03;4995793;28;20218;-78
2022/11/06 11:46:08;;;;;;;2.42;1.58;;;;;;;23.37;40.68;101186.78;4999058;28;20196;-77
2022/11/06 11:48:49;;;;;;;3.80;1.80;;;;;;;24.86;36.51;101171.75;5002052;28;20187;-78
2022/11/06 11:51:42;;;;;;;3.10;1.67;;;;;;;28.00;32.80;101152.78;5002782;28;20202;-77
2022/11/06 11:54:10;;;;;;;2.35;1.63;;;;;;;28.31;31.59;101147.75;4994665;28;20207;-73
2022/11/06 11:56:46;;;;;;;3.13;1.42;;;;;;;26.65;33.71;101161.47;5005367;28;20194;-77